Time;durP1;ratioP1;P1;durP2;ratioP2;P2;SDS_P1;SDS_P2;PMS_P1;PMS_P2;Temp;Humidity;BMP_temperature;BMP_pressure;BME280_temperature;BME280_humidity;BME280_pressure;Samples;Min_cycle;Max_cycle;Signal;HPM_P1;HPM_P2
2021/07/04 00:02:27;;;;;;;0.55;0.55;;;14.10;71.70;;;;;;4956184;28;95748;-45
2021/07/04 00:04:57;;;;;;;0.57;0.57;;;14.00;71.60;;;;;;4961202;28;102027;-46
2021/07/04 00:07:28;;;;;;;0.60;0.57;;;14.00;71.50;;;;;;4956334;28;96092;-45
2021/07/04 00:09:58;;;;;;;0.60;0.60;;;14.00;71.50;;;;;;4959656;28;96819;-53
2021/07/04 00:12:28;;;;;;;0.47;0.47;;;14.00;71.40;;;;;;4948934;28;95908;-45
2021/07/04 00:15:01;;;;;;;0.68;0.68;;;14.00;71.40;;;;;;4951825;28;96172;-45
2021/07/04 00:17:33;;;;;;;0.55;0.55;;;14.00;71.60;;;;;;4946360;28;96341;-51
2021/07/04 00:20:13;;;;;;;0.40;0.40;;;14.00;71.60;;;;;;4961330;28;95667;-51
2021/07/04 00:22:43;;;;;;;0.65;0.60;;;14.00;71.60;;;;;;4959591;28;95622;-45
2021/07/04 00:25:16;;;;;;;0.52;0.52;;;13.90;71.60;;;;;;4964642;28;98110;-45
2021/07/04 00:27:48;;;;;;;0.40;0.40;;;13.90;71.70;;;;;;4956654;28;95886;-45
2021/07/04 00:30:19;;;;;;;0.47;0.47;;;13.90;71.70;;;;;;4950036;28;96110;-47
2021/07/04 00:32:51;;;;;;;0.55;0.55;;;13.90;71.80;;;;;;4963653;28;95962;-55
2021/07/04 00:35:24;;;;;;;0.50;0.50;;;13.90;72.00;;;;;;4961992;28;96518;-56
2021/07/04 00:37:55;;;;;;;0.60;0.60;;;13.90;72.10;;;;;;4963347;28;96010;-45
2021/07/04 00:40:28;;;;;;;0.70;0.40;;;13.90;72.20;;;;;;4954851;28;95837;-46
2021/07/04 00:43:00;;;;;;;0.57;0.57;;;13.90;72.20;;;;;;4952299;28;95335;-46
2021/07/04 00:45:31;;;;;;;0.95;0.50;;;13.90;72.30;;;;;;4953224;28;96712;-46
2021/07/04 00:48:02;;;;;;;0.40;0.38;;;14.00;72.10;;;;;;4960306;28;96682;-48
2021/07/04 00:50:34;;;;;;;0.40;0.40;;;14.00;72.00;;;;;;4956907;28;95944;-46
2021/07/04 00:53:09;;;;;;;3.42;0.65;;;14.10;72.10;;;;;;4960877;28;95966;-46
2021/07/04 00:55:41;;;;;;;0.47;0.47;;;14.20;72.40;;;;;;4965204;28;96153;-46
2021/07/04 00:58:15;;;;;;;0.70;0.63;;;14.20;72.30;;;;;;4949005;28;95667;-46
2021/07/04 01:00:51;;;;;;;1.58;0.52;;;14.20;72.50;;;;;;4947836;28;95965;-46
2021/07/04 01:03:22;;;;;;;0.80;0.80;;;14.20;72.60;;;;;;4950993;28;95393;-47
2021/07/04 01:05:59;;;;;;;1.75;0.57;;;14.20;72.70;;;;;;4958626;28;95916;-46
2021/07/04 01:08:29;;;;;;;1.60;0.60;;;14.20;72.70;;;;;;4954273;28;102715;-46
2021/07/04 01:11:02;;;;;;;1.47;0.70;;;14.20;72.60;;;;;;4954572;28;95828;-46
2021/07/04 01:13:36;;;;;;;1.60;0.75;;;14.20;72.40;;;;;;4954462;28;95903;-45
2021/07/04 01:16:13;;;;;;;1.77;0.60;;;14.20;72.40;;;;;;4956008;28;96571;-46
2021/07/04 01:18:46;;;;;;;1.17;0.52;;;14.20;72.40;;;;;;4956990;28;97844;-46
2021/07/04 01:21:31;;;;;;;0.63;0.50;;;14.20;72.50;;;;;;4982365;28;96324;-46
2021/07/04 01:24:03;;;;;;;0.50;0.50;;;14.20;72.40;;;;;;4957106;28;95767;-46
2021/07/04 01:26:34;;;;;;;0.63;0.63;;;14.20;72.40;;;;;;4946160;28;95948;-46
2021/07/04 01:29:07;;;;;;;0.45;0.45;;;14.20;72.50;;;;;;4958263;28;97849;-45
2021/07/04 01:31:40;;;;;;;0.75;0.60;;;14.30;72.70;;;;;;4961806;28;95325;-46
2021/07/04 01:34:19;;;;;;;0.63;0.63;;;14.30;72.50;;;;;;4957232;28;96682;-46
2021/07/04 01:36:51;;;;;;;1.52;0.60;;;14.30;72.60;;;;;;4964469;28;97953;-46
2021/07/04 01:39:28;;;;;;;1.13;0.60;;;14.30;72.60;;;;;;4965673;28;97206;-45
2021/07/04 01:42:04;;;;;;;0.47;0.47;;;14.30;72.40;;;;;;4951715;28;95365;-45
2021/07/04 01:44:35;;;;;;;0.65;0.60;;;14.30;72.60;;;;;;4961184;28;95616;-46
2021/07/04 01:47:06;;;;;;;1.10;0.65;;;14.30;72.70;;;;;;4963280;28;95857;-45
2021/07/04 01:49:42;;;;;;;0.50;0.50;;;14.30;72.90;;;;;;4961568;28;95993;-45
2021/07/04 01:52:16;;;;;;;0.70;0.70;;;14.30;72.80;;;;;;4964295;28;95356;-46
2021/07/04 01:54:51;;;;;;;0.60;0.60;;;14.30;72.80;;;;;;4964034;28;95398;-46
2021/07/04 01:57:24;;;;;;;0.73;0.53;;;14.30;72.90;;;;;;4966512;28;95740;-45
2021/07/04 02:00:10;;;;;;;1.70;0.50;;;14.30;72.80;;;;;;4977096;28;96448;-45
2021/07/04 02:02:51;;;;;;;0.77;0.77;;;14.30;73.00;;;;;;4966388;28;95647;-46
2021/07/04 02:05:31;;;;;;;0.60;0.60;;;14.40;73.10;;;;;;4964150;28;95829;-45
2021/07/04 02:08:05;;;;;;;0.73;0.70;;;14.30;73.10;;;;;;4964802;28;97124;-45
2021/07/04 02:10:39;;;;;;;0.98;0.88;;;14.30;73.10;;;;;;4960734;28;96049;-45
2021/07/04 02:13:14;;;;;;;1.90;1.50;;;14.30;73.10;;;;;;4957107;28;95997;-46
2021/07/04 02:15:52;;;;;;;1.48;1.35;;;14.40;73.20;;;;;;4950058;28;96776;-45
2021/07/04 02:18:51;;;;;;;1.38;1.20;;;14.40;73.30;;;;;;4953452;28;96332;-45
2021/07/04 02:21:53;;;;;;;2.17;1.70;;;14.40;73.20;;;;;;4955472;28;96176;-45
2021/07/04 02:24:41;;;;;;;1.80;1.20;;;14.40;73.20;;;;;;4982501;28;95979;-45
2021/07/04 02:27:34;;;;;;;1.88;1.45;;;14.40;73.20;;;;;;4950773;28;95526;-45
2021/07/04 02:30:22;;;;;;;1.20;1.10;;;14.40;73.20;;;;;;4944292;28;96155;-46
2021/07/04 02:33:00;;;;;;;1.25;1.10;;;14.40;73.30;;;;;;4953689;28;96250;-45
2021/07/04 02:35:36;;;;;;;2.20;1.13;;;14.40;73.30;;;;;;4953907;28;96080;-46
2021/07/04 02:38:09;;;;;;;1.88;1.10;;;14.40;73.30;;;;;;4949349;28;95609;-45
2021/07/04 02:40:45;;;;;;;1.20;1.10;;;14.40;73.40;;;;;;4946511;28;98312;-46
2021/07/04 02:43:20;;;;;;;1.17;1.17;;;14.50;73.40;;;;;;4961854;28;95868;-45
2021/07/04 02:45:54;;;;;;;1.33;1.10;;;14.50;73.50;;;;;;4952026;28;95845;-45
2021/07/04 02:48:25;;;;;;;1.08;0.98;;;14.50;73.40;;;;;;4963732;28;95391;-46
2021/07/04 02:50:59;;;;;;;1.13;1.02;;;14.50;73.30;;;;;;4977792;28;96509;-46
2021/07/04 02:53:31;;;;;;;1.20;1.10;;;14.50;73.30;;;;;;4963923;28;97823;-50
2021/07/04 02:56:11;;;;;;;2.05;0.95;;;14.50;73.20;;;;;;4956561;28;95641;-45
2021/07/04 02:58:43;;;;;;;1.92;1.48;;;14.50;73.20;;;;;;4947506;28;95904;-46
2021/07/04 03:01:15;;;;;;;1.23;1.10;;;14.60;73.20;;;;;;4951300;28;96650;-45
2021/07/04 03:03:46;;;;;;;1.38;1.17;;;14.50;73.20;;;;;;4953589;28;95931;-48
2021/07/04 03:06:18;;;;;;;2.38;1.75;;;14.60;73.30;;;;;;4963369;28;95565;-45
2021/07/04 03:08:49;;;;;;;3.00;2.33;;;14.60;73.30;;;;;;4963930;28;95654;-46
2021/07/04 03:11:24;;;;;;;4.68;2.28;;;14.60;73.30;;;;;;4981689;28;97945;-46
2021/07/04 03:13:58;;;;;;;5.90;3.67;;;14.60;73.20;;;;;;4951676;28;95993;-48
2021/07/04 03:16:31;;;;;;;5.05;3.47;;;14.60;72.90;;;;;;4933992;28;95781;-46
2021/07/04 03:19:06;;;;;;;11.75;3.40;;;14.60;72.90;;;;;;4953232;28;95981;-45
2021/07/04 03:21:38;;;;;;;3.72;2.47;;;14.70;72.90;;;;;;4929494;28;95841;-46
2021/07/04 03:24:12;;;;;;;4.30;2.70;;;14.60;72.90;;;;;;4933685;28;95824;-46
2021/07/04 03:26:44;;;;;;;3.20;2.65;;;14.60;72.90;;;;;;4931829;28;95425;-45
2021/07/04 03:29:17;;;;;;;3.10;2.80;;;14.50;72.80;;;;;;4953465;28;95767;-45
2021/07/04 03:31:48;;;;;;;;;;;14.50;72.60;;;;;;4967834;28;98416;-55
2021/07/04 03:34:21;;;;;;;4.63;2.72;;;14.50;72.60;;;;;;4978347;28;95882;-53
2021/07/04 03:36:58;;;;;;;4.93;3.05;;;14.50;72.40;;;;;;4958213;28;95727;-52
2021/07/04 03:39:30;;;;;;;4.15;2.90;;;14.50;72.30;;;;;;4946078;28;95449;-52
2021/07/04 03:42:04;;;;;;;3.00;2.20;;;14.50;72.30;;;;;;4946944;28;96695;-45
2021/07/04 03:44:41;;;;;;;2.88;2.25;;;14.50;72.30;;;;;;4958319;28;95689;-54
2021/07/04 03:47:15;;;;;;;3.05;2.40;;;14.50;72.30;;;;;;4958373;28;95961;-45
2021/07/04 03:49:46;;;;;;;;;;;14.50;72.20;;;;;;4954816;28;95984;-54
2021/07/04 03:52:20;;;;;;;1.83;1.55;;;14.50;72.10;;;;;;4952800;28;95834;-44
2021/07/04 03:54:51;;;;;;;2.22;2.03;;;14.50;72.00;;;;;;4949648;28;102753;-45
2021/07/04 03:57:31;;;;;;;2.17;1.98;;;14.40;71.80;;;;;;4964214;28;95852;-53
2021/07/04 04:00:16;;;;;;;2.80;1.88;;;14.40;71.70;;;;;;4941961;28;95776;-45
2021/07/04 04:03:01;;;;;;;2.28;1.70;;;14.40;71.60;;;;;;4963634;28;105001;-45
2021/07/04 04:05:39;;;;;;;4.32;1.92;;;14.40;71.50;;;;;;4939266;28;96246;-51
2021/07/04 04:08:10;;;;;;;1.83;1.60;;;14.40;71.50;;;;;;4941053;28;95809;-44
2021/07/04 04:10:46;;;;;;;2.58;1.77;;;14.40;71.50;;;;;;4945243;28;95793;-44
2021/07/04 04:13:21;;;;;;;2.45;1.55;;;14.40;71.50;;;;;;4956655;28;96060;-46
2021/07/04 04:16:01;;;;;;;2.45;1.75;;;14.40;71.30;;;;;;4937060;28;96239;-44
2021/07/04 04:18:37;;;;;;;1.98;1.55;;;14.40;71.40;;;;;;4969640;28;95778;-44
2021/07/04 04:21:11;;;;;;;2.00;1.60;;;14.40;71.30;;;;;;4963864;28;98217;-45
2021/07/04 04:23:46;;;;;;;1.98;1.65;;;14.40;71.30;;;;;;4944967;28;98269;-54
2021/07/04 04:26:23;;;;;;;1.55;1.45;;;14.30;71.40;;;;;;4961884;28;95363;-45
2021/07/04 04:28:59;;;;;;;2.53;1.60;;;14.30;71.30;;;;;;4960458;28;96193;-44
2021/07/04 04:31:31;;;;;;;1.83;1.60;;;14.30;71.30;;;;;;4954750;28;96477;-44
2021/07/04 04:34:04;;;;;;;;;;;14.30;71.30;;;;;;4970106;28;96043;-45
2021/07/04 04:36:36;;;;;;;1.55;1.35;;;14.30;71.30;;;;;;4965761;28;95973;-44
2021/07/04 04:39:08;;;;;;;1.52;1.35;;;14.30;71.40;;;;;;4949795;28;95875;-44
2021/07/04 04:41:41;;;;;;;3.38;1.48;;;14.30;71.20;;;;;;4960831;28;95995;-44
2021/07/04 04:44:36;;;;;;;2.63;1.77;;;14.30;71.30;;;;;;4960767;28;95944;-45
2021/07/04 04:47:09;;;;;;;2.20;1.50;;;14.30;71.30;;;;;;4951731;28;100636;-45
2021/07/04 04:49:42;;;;;;;1.63;1.40;;;14.30;71.30;;;;;;4951895;28;95746;-44
2021/07/04 04:52:17;;;;;;;1.48;1.38;;;14.20;71.20;;;;;;4952517;28;95653;-43
2021/07/04 04:54:48;;;;;;;2.45;1.23;;;14.20;71.20;;;;;;4954355;28;95886;-43
2021/07/04 04:57:19;;;;;;;1.10;1.00;;;14.20;71.20;;;;;;4957904;28;95997;-43
2021/07/04 04:59:52;;;;;;;1.40;1.30;;;14.20;71.30;;;;;;4951611;28;97402;-43
2021/07/04 05:02:27;;;;;;;1.85;1.58;;;14.20;71.30;;;;;;4956229;28;95376;-43
2021/07/04 05:04:58;;;;;;;1.90;1.10;;;14.20;71.40;;;;;;4956278;28;95949;-43
2021/07/04 05:07:28;;;;;;;2.35;1.92;;;14.20;71.50;;;;;;4958231;28;95924;-43
2021/07/04 05:09:59;;;;;;;1.30;1.07;;;14.20;71.50;;;;;;4951354;28;95659;-44
2021/07/04 05:12:35;;;;;;;1.30;1.20;;;14.10;71.50;;;;;;4978726;28;96005;-43
2021/07/04 05:15:10;;;;;;;1.63;1.10;;;14.10;71.50;;;;;;4954264;28;96493;-43
2021/07/04 05:17:48;;;;;;;0.90;0.90;;;14.20;71.60;;;;;;4956560;28;97233;-51
2021/07/04 05:20:19;;;;;;;1.20;1.08;;;14.10;71.60;;;;;;4993354;28;95713;-44
2021/07/04 05:22:50;;;;;;;0.83;0.83;;;14.10;71.70;;;;;;4958290;28;96048;-44
2021/07/04 05:25:22;;;;;;;1.85;1.10;;;14.10;71.70;;;;;;4958236;28;95887;-49
2021/07/04 05:27:54;;;;;;;0.90;0.90;;;14.10;71.70;;;;;;4956479;28;98216;-44
2021/07/04 05:30:25;;;;;;;0.95;0.90;;;14.10;71.80;;;;;;4955471;28;95751;-53
2021/07/04 05:32:57;;;;;;;1.33;1.23;;;14.10;71.80;;;;;;4936491;28;95863;-51
2021/07/04 05:35:29;;;;;;;0.90;0.90;;;14.10;71.90;;;;;;4943609;28;95911;-51
2021/07/04 05:38:03;;;;;;;3.92;1.00;;;14.10;71.90;;;;;;4940077;28;96636;-56
2021/07/04 05:40:35;;;;;;;1.00;0.90;;;14.10;72.30;;;;;;4949135;28;96038;-45
2021/07/04 05:43:08;;;;;;;1.52;1.20;;;14.20;72.70;;;;;;4941319;28;95705;-44
2021/07/04 05:45:40;;;;;;;1.27;1.17;;;14.20;72.80;;;;;;4958575;28;97796;-54
2021/07/04 05:48:11;;;;;;;1.80;1.02;;;14.20;72.90;;;;;;4950319;28;95836;-45
2021/07/04 05:50:42;;;;;;;1.65;1.00;;;14.20;72.80;;;;;;4966945;28;95828;-50
2021/07/04 05:53:16;;;;;;;1.00;0.80;;;14.20;72.90;;;;;;4958819;28;96743;-45
2021/07/04 05:55:49;;;;;;;1.65;0.90;;;14.20;72.90;;;;;;4953661;28;95869;-45
2021/07/04 05:58:23;;;;;;;0.90;0.90;;;14.20;72.90;;;;;;4960687;28;95653;-45
2021/07/04 06:00:56;;;;;;;1.17;0.95;;;14.10;72.80;;;;;;4958808;28;97415;-45
2021/07/04 06:03:28;;;;;;;1.38;0.90;;;14.10;72.80;;;;;;4959910;28;95666;-45
2021/07/04 06:05:58;;;;;;;;;;;14.10;72.80;;;;;;4967238;28;99307;-45
2021/07/04 06:08:29;;;;;;;1.23;1.13;;;14.10;72.80;;;;;;4959833;28;95691;-52
2021/07/04 06:11:00;;;;;;;1.33;1.00;;;14.10;72.80;;;;;;4956397;28;95818;-44
2021/07/04 06:13:31;;;;;;;1.10;0.93;;;14.10;72.90;;;;;;4956002;28;95961;-45
2021/07/04 06:16:05;;;;;;;0.95;0.88;;;14.10;72.80;;;;;;4979206;28;98726;-55
2021/07/04 06:18:36;;;;;;;1.27;1.02;;;14.10;72.80;;;;;;4958373;28;95887;-45
2021/07/04 06:21:08;;;;;;;2.28;0.98;;;14.10;72.80;;;;;;4960214;28;95823;-45
2021/07/04 06:23:39;;;;;;;0.93;0.90;;;14.10;72.90;;;;;;4966137;28;95731;-56
2021/07/04 06:26:13;;;;;;;1.08;1.08;;;14.10;72.90;;;;;;4955327;28;96014;-45
2021/07/04 06:28:45;;;;;;;1.00;1.00;;;14.10;72.90;;;;;;4955665;28;96780;-45
2021/07/04 06:31:18;;;;;;;1.08;0.98;;;14.10;72.90;;;;;;4953866;28;95961;-45
2021/07/04 06:33:56;;;;;;;1.52;1.10;;;14.10;72.90;;;;;;4953742;28;95725;-46
2021/07/04 06:36:29;;;;;;;2.13;1.20;;;14.10;72.90;;;;;;4946190;28;95833;-46
2021/07/04 06:39:02;;;;;;;1.30;1.10;;;14.10;72.90;;;;;;4946851;28;95980;-55
2021/07/04 06:41:35;;;;;;;2.67;1.33;;;14.10;72.90;;;;;;4963427;28;95711;-53
2021/07/04 06:44:07;;;;;;;0.88;0.77;;;14.10;73.00;;;;;;4965976;28;95979;-56
2021/07/04 06:46:37;;;;;;;1.60;0.80;;;14.10;73.00;;;;;;4954836;28;97886;-50
2021/07/04 06:49:09;;;;;;;0.87;0.83;;;14.10;73.00;;;;;;4965569;28;97165;-56
2021/07/04 06:51:41;;;;;;;2.17;1.10;;;14.10;72.90;;;;;;4962407;28;98003;-46
2021/07/04 06:54:16;;;;;;;1.02;0.93;;;14.10;73.00;;;;;;4950331;28;95788;-57
2021/07/04 06:56:49;;;;;;;1.23;0.90;;;14.10;73.00;;;;;;4963703;28;95827;-55
2021/07/04 06:59:22;;;;;;;2.78;1.23;;;14.10;73.00;;;;;;4965888;28;95976;-53
2021/07/04 07:01:55;;;;;;;1.10;1.00;;;14.10;73.10;;;;;;4960094;28;97658;-45
2021/07/04 07:04:26;;;;;;;2.60;1.05;;;14.10;73.10;;;;;;4949898;28;95800;-56
2021/07/04 07:07:00;;;;;;;1.13;1.00;;;14.10;72.70;;;;;;4947713;28;97109;-55
2021/07/04 07:09:31;;;;;;;1.77;1.10;;;14.10;73.10;;;;;;4986252;28;95802;-57
2021/07/04 07:12:02;;;;;;;2.33;1.17;;;14.10;73.10;;;;;;4964553;28;95266;-55
2021/07/04 07:14:38;;;;;;;1.38;1.10;;;14.10;73.10;;;;;;4953080;28;97028;-56
2021/07/04 07:17:13;;;;;;;1.17;1.13;;;14.00;73.10;;;;;;4984321;28;96583;-54
2021/07/04 07:19:44;;;;;;;1.42;0.93;;;14.00;73.10;;;;;;4954499;28;95381;-56
2021/07/04 07:22:21;;;;;;;2.05;1.23;;;14.10;73.10;;;;;;4952988;28;95702;-55
2021/07/04 07:24:52;;;;;;;;;;;14.00;73.10;;;;;;4956660;28;95267;-46
2021/07/04 07:27:29;;;;;;;1.40;1.10;;;14.00;73.10;;;;;;4962148;28;95846;-46
2021/07/04 07:30:07;;;;;;;2.47;1.20;;;14.00;73.10;;;;;;4956509;28;95974;-46
2021/07/04 07:32:40;;;;;;;1.42;1.33;;;14.00;73.10;;;;;;4958786;28;95970;-47
2021/07/04 07:35:14;;;;;;;1.55;1.23;;;14.00;73.10;;;;;;4967806;28;95692;-46
2021/07/04 07:37:51;;;;;;;1.75;1.17;;;14.00;73.10;;;;;;4960451;28;102925;-46
2021/07/04 07:40:23;;;;;;;1.63;1.25;;;14.00;73.10;;;;;;4968976;28;95253;-57
2021/07/04 07:43:00;;;;;;;1.70;1.02;;;14.00;73.10;;;;;;4963265;28;95605;-47
2021/07/04 07:45:31;;;;;;;1.55;1.20;;;14.00;73.10;;;;;;4962148;28;95727;-46
2021/07/04 07:48:08;;;;;;;1.48;1.08;;;14.00;73.10;;;;;;4963135;28;96556;-46
2021/07/04 07:50:50;;;;;;;2.15;1.52;;;14.00;73.10;;;;;;4980853;28;96079;-48
2021/07/04 07:53:22;;;;;;;1.10;1.00;;;14.00;73.10;;;;;;4965581;28;95835;-46
2021/07/04 07:55:54;;;;;;;1.77;1.00;;;14.00;73.20;;;;;;4954685;28;95959;-48
2021/07/04 07:58:29;;;;;;;1.02;0.88;;;14.00;73.20;;;;;;4955651;28;96219;-47
2021/07/04 08:01:02;;;;;;;1.98;1.08;;;14.00;73.20;;;;;;4950918;28;95944;-56
2021/07/04 08:03:33;;;;;;;1.75;1.10;;;13.90;73.10;;;;;;4951777;28;95711;-49
2021/07/04 08:06:04;;;;;;;1.13;0.88;;;13.90;73.20;;;;;;4959155;28;95653;-47
2021/07/04 08:08:34;;;;;;;1.70;1.17;;;14.00;73.20;;;;;;4957447;28;96453;-47
2021/07/04 08:11:07;;;;;;;1.85;1.35;;;13.90;73.20;;;;;;4966851;28;97443;-48
2021/07/04 08:13:39;;;;;;;1.50;1.02;;;13.90;73.80;;;;;;4956711;28;95711;-47
2021/07/04 08:16:16;;;;;;;1.45;1.10;;;13.90;73.20;;;;;;4948586;28;95662;-47
2021/07/04 08:18:50;;;;;;;1.10;1.00;;;13.90;73.20;;;;;;4961814;28;98633;-47
2021/07/04 08:21:21;;;;;;;1.00;1.00;;;13.90;73.20;;;;;;4957124;28;95419;-48
2021/07/04 08:23:53;;;;;;;1.13;1.03;;;13.90;73.20;;;;;;4956062;28;95913;-48
2021/07/04 08:26:23;;;;;;;;;;;13.90;73.20;;;;;;4959915;28;95917;-47
2021/07/04 08:28:56;;;;;;;;;;;13.90;73.30;;;;;;4963951;28;95823;-47
2021/07/04 08:31:29;;;;;;;1.55;1.30;;;13.90;73.40;;;;;;4952311;28;95336;-47
2021/07/04 08:34:02;;;;;;;3.05;1.90;;;13.90;73.40;;;;;;4949201;28;97162;-48
2021/07/04 08:36:35;;;;;;;1.45;1.20;;;13.90;73.40;;;;;;4961100;28;95525;-49
2021/07/04 08:39:08;;;;;;;2.25;1.60;;;13.90;73.50;;;;;;4963828;28;96053;-47
2021/07/04 08:41:40;;;;;;;9.50;4.70;;;13.90;74.10;;;;;;4961018;28;95494;-48
2021/07/04 08:44:14;;;;;;;17.80;6.93;;;14.00;75.30;;;;;;4966278;28;95872;-50
2021/07/04 08:46:45;;;;;;;18.27;7.35;;;14.00;75.50;;;;;;4960159;28;95841;-47
2021/07/04 08:49:17;;;;;;;14.40;7.80;;;14.00;75.80;;;;;;4962467;28;96195;-50
2021/07/04 08:51:48;;;;;;;17.77;8.93;;;14.00;75.60;;;;;;4951044;28;95813;-49
2021/07/04 08:54:19;;;;;;;17.25;7.38;;;14.00;75.50;;;;;;4966515;28;95732;-48
2021/07/04 08:56:50;;;;;;;22.77;8.25;;;14.00;75.60;;;;;;4959216;28;95848;-48
2021/07/04 08:59:23;;;;;;;16.60;8.30;;;14.00;75.50;;;;;;4963054;28;96359;-47
2021/07/04 09:01:59;;;;;;;13.27;7.85;;;13.90;75.50;;;;;;4955074;28;96363;-49
2021/07/04 09:04:29;;;;;;;15.38;7.47;;;13.90;75.30;;;;;;4953899;28;95810;-51
2021/07/04 09:07:00;;;;;;;16.83;7.97;;;13.90;75.40;;;;;;4948179;28;95875;-49
2021/07/04 09:09:34;;;;;;;21.05;8.73;;;13.90;75.40;;;;;;4952100;28;95880;-50
2021/07/04 09:12:14;;;;;;;17.10;7.20;;;13.90;75.40;;;;;;4953900;28;100522;-48
2021/07/04 09:14:49;;;;;;;12.93;7.65;;;13.90;75.20;;;;;;4951984;28;95969;-48
2021/07/04 09:17:38;;;;;;;13.27;7.45;;;13.90;75.30;;;;;;4984390;28;97212;-58
2021/07/04 09:20:37;;;;;;;13.70;7.55;;;13.90;75.20;;;;;;4955498;28;95656;-49
2021/07/04 09:23:08;;;;;;;14.60;6.75;;;13.90;75.20;;;;;;4956909;28;96115;-48
2021/07/04 09:25:40;;;;;;;12.73;6.25;;;13.90;75.10;;;;;;4953577;28;95443;-48
2021/07/04 09:28:18;;;;;;;12.02;6.45;;;13.90;75.10;;;;;;4953526;28;96091;-50
2021/07/04 09:30:56;;;;;;;13.43;7.30;;;13.90;75.10;;;;;;4943891;28;96389;-48
2021/07/04 09:33:36;;;;;;;17.52;6.88;;;13.90;75.00;;;;;;4954092;28;96034;-49
2021/07/04 09:36:09;;;;;;;11.50;6.55;;;13.90;75.00;;;;;;4963908;28;95723;-47
2021/07/04 09:38:46;;;;;;;12.60;7.20;;;13.90;75.00;;;;;;4950274;28;96581;-49
2021/07/04 09:41:19;;;;;;;11.25;6.57;;;13.90;75.00;;;;;;4965484;28;95987;-57
2021/07/04 09:43:51;;;;;;;11.27;6.38;;;13.90;74.90;;;;;;4960973;28;95816;-56
2021/07/04 09:46:21;;;;;;;15.13;7.03;;;13.90;74.90;;;;;;4963357;28;95252;-49
2021/07/04 09:48:53;;;;;;;15.48;6.80;;;13.90;74.90;;;;;;4965271;28;95970;-48
2021/07/04 09:51:27;;;;;;;13.73;6.75;;;13.90;74.90;;;;;;4966042;28;95862;-52
2021/07/04 09:54:00;;;;;;;14.25;7.20;;;13.80;74.90;;;;;;4960646;28;96106;-57
2021/07/04 09:56:33;;;;;;;9.32;6.15;;;13.80;74.90;;;;;;4963302;28;95787;-52
2021/07/04 09:59:07;;;;;;;12.75;6.57;;;13.80;74.80;;;;;;4954855;28;95611;-59
2021/07/04 10:01:43;;;;;;;14.05;5.95;;;13.80;74.90;;;;;;4961619;28;95830;-54
2021/07/04 10:04:37;;;;;;;16.73;7.22;;;13.80;74.90;;;;;;4965023;28;96913;-60
2021/07/04 10:07:09;;;;;;;8.63;5.20;;;13.80;74.90;;;;;;4964740;28;95806;-57
2021/07/04 10:09:41;;;;;;;9.35;5.82;;;13.80;76.00;;;;;;4956305;28;95691;-58
2021/07/04 10:12:12;;;;;;;8.70;5.10;;;14.00;75.90;;;;;;4952606;28;95845;-58
2021/07/04 10:14:45;;;;;;;10.07;4.88;;;14.10;76.10;;;;;;4950968;28;95925;-58
2021/07/04 10:17:18;;;;;;;9.52;5.13;;;14.10;75.90;;;;;;4953147;28;95726;-52
2021/07/04 10:19:53;;;;;;;12.52;6.10;;;14.10;76.00;;;;;;4953032;28;96083;-49
2021/07/04 10:22:24;;;;;;;12.20;5.43;;;14.30;77.90;;;;;;4964669;28;95864;-55
2021/07/04 10:24:59;;;;;;;11.23;5.65;;;14.50;78.60;;;;;;4954865;28;96050;-51
2021/07/04 10:27:33;;;;;;;11.60;4.88;;;14.80;79.70;;;;;;4975683;28;95819;-51
2021/07/04 10:30:06;;;;;;;7.90;4.18;;;14.90;80.10;;;;;;4943467;28;95817;-49
2021/07/04 10:32:59;;;;;;;10.90;3.95;;;15.00;80.20;;;;;;4961369;28;95879;-48
2021/07/04 10:35:30;;;;;;;9.60;4.82;;;15.00;79.90;;;;;;4953923;28;96252;-49
2021/07/04 10:38:16;;;;;;;7.63;4.30;;;15.00;79.80;;;;;;4949735;28;96578;-48
2021/07/04 10:40:47;;;;;;;8.57;4.13;;;15.00;80.50;;;;;;4951705;28;95738;-48
2021/07/04 10:43:50;;;;;;;7.03;4.32;;;15.10;80.50;;;;;;4957069;28;95833;-48
2021/07/04 10:46:43;;;;;;;8.57;4.20;;;15.10;80.50;;;;;;4943852;28;95818;-48
2021/07/04 10:49:20;;;;;;;7.82;4.72;;;15.10;81.00;;;;;;4959875;28;98184;-49
2021/07/04 10:52:08;;;;;;;10.23;4.93;;;15.20;80.20;;;;;;4962240;28;95669;-47
2021/07/04 10:54:47;;;;;;;10.45;4.20;;;15.10;80.00;;;;;;4962914;28;96016;-48
2021/07/04 10:57:31;;;;;;;10.25;4.82;;;15.00;79.90;;;;;;4948975;28;96007;-48
2021/07/04 11:00:08;;;;;;;8.52;3.97;;;15.00;79.70;;;;;;4947611;28;105919;-48
2021/07/04 11:02:57;;;;;;;11.02;4.28;;;14.90;79.60;;;;;;4953247;28;95445;-49
2021/07/04 11:05:37;;;;;;;7.00;3.85;;;14.90;79.50;;;;;;4950505;28;96819;-53
2021/07/04 11:08:13;;;;;;;7.10;3.67;;;14.90;79.20;;;;;;4961467;28;95834;-49
2021/07/04 11:10:55;;;;;;;6.43;4.07;;;14.80;79.00;;;;;;4952351;28;95468;-48
2021/07/04 11:13:32;;;;;;;6.63;3.55;;;14.90;78.90;;;;;;4952155;28;95915;-47
2021/07/04 11:16:35;;;;;;;6.20;3.75;;;14.80;78.60;;;;;;4951983;28;96101;-53
2021/07/04 11:19:10;;;;;;;5.20;4.13;;;14.80;78.60;;;;;;4953425;28;95729;-47
2021/07/04 11:21:50;;;;;;;6.43;4.25;;;14.80;78.40;;;;;;4954950;28;95329;-50
2021/07/04 11:24:27;;;;;;;9.15;4.53;;;14.80;78.30;;;;;;4962909;28;95874;-48
2021/07/04 11:27:24;;;;;;;6.03;4.03;;;14.70;78.30;;;;;;4975563;28;96360;-55
2021/07/04 11:30:25;;;;;;;5.47;4.07;;;14.70;78.20;;;;;;4955606;28;97992;-49
2021/07/04 11:33:26;;;;;;;7.13;4.57;;;14.70;78.10;;;;;;4958940;28;96001;-56
2021/07/04 11:36:00;;;;;;;6.03;3.43;;;14.70;78.10;;;;;;4964254;28;95878;-57
2021/07/04 11:38:36;;;;;;;6.22;4.13;;;14.70;78.00;;;;;;4949274;28;95899;-48
2021/07/04 11:41:20;;;;;;;6.72;4.03;;;14.70;78.00;;;;;;4953258;28;96129;-49
2021/07/04 11:43:59;;;;;;;7.10;4.13;;;14.60;77.80;;;;;;4950318;28;95371;-49
2021/07/04 11:46:31;;;;;;;6.47;3.80;;;14.60;77.80;;;;;;4948194;28;96020;-55
2021/07/04 11:49:08;;;;;;;4.93;3.45;;;14.60;77.70;;;;;;4961230;28;95827;-54
2021/07/04 11:51:51;;;;;;;5.05;3.70;;;14.60;77.70;;;;;;4948090;28;95758;-48
2021/07/04 11:54:30;;;;;;;5.18;4.18;;;14.60;77.60;;;;;;4948244;28;96253;-56
2021/07/04 11:59:59;;;;;;;5.05;3.08;;;14.60;77.60;;;;;;4952932;28;95906;-48
2021/07/04 12:02:52;;;;;;;4.93;3.17;;;14.50;77.50;;;;;;4949628;28;95782;-49
2021/07/04 12:05:23;;;;;;;6.10;3.45;;;14.50;77.40;;;;;;4966213;28;95450;-47
2021/07/04 12:07:58;;;;;;;3.90;3.03;;;14.50;78.00;;;;;;4963307;28;95811;-47
2021/07/04 12:10:33;;;;;;;4.85;3.58;;;14.50;77.30;;;;;;4954682;28;96016;-50
2021/07/04 12:13:07;;;;;;;7.05;4.00;;;14.50;77.30;;;;;;4947237;28;95987;-56
2021/07/04 12:15:40;;;;;;;2.92;2.63;;;14.50;77.20;;;;;;4950047;28;95867;-48
2021/07/04 12:18:19;;;;;;;4.07;3.22;;;14.40;77.10;;;;;;4957314;28;95739;-48
2021/07/04 12:20:55;;;;;;;5.05;3.20;;;14.40;77.10;;;;;;4958811;28;95973;-55
2021/07/04 12:23:28;;;;;;;5.35;3.17;;;14.40;77.10;;;;;;4964217;28;95848;-47
2021/07/04 12:26:08;;;;;;;4.88;3.25;;;14.40;77.00;;;;;;4966319;28;95683;-56
2021/07/04 12:28:40;;;;;;;5.70;3.03;;;14.40;77.00;;;;;;4961947;28;95422;-48
2021/07/04 12:31:11;;;;;;;6.13;3.50;;;14.40;76.90;;;;;;4964264;28;95944;-54
2021/07/04 12:33:45;;;;;;;4.63;3.28;;;14.40;76.90;;;;;;4964115;28;96072;-47
2021/07/04 12:36:18;;;;;;;5.55;3.65;;;14.40;76.90;;;;;;4963356;28;96148;-56
2021/07/04 12:38:52;;;;;;;5.57;3.67;;;14.40;76.90;;;;;;4962982;28;95907;-47
2021/07/04 12:41:34;;;;;;;5.43;3.45;;;14.30;76.80;;;;;;4962935;28;96007;-48
2021/07/04 12:44:16;;;;;;;5.32;3.75;;;14.30;76.70;;;;;;4961346;28;96663;-56
2021/07/04 12:46:46;;;;;;;4.03;3.60;;;14.30;76.70;;;;;;4963504;28;95770;-47
2021/07/04 12:49:17;;;;;;;3.37;3.00;;;14.30;76.70;;;;;;4965104;28;95200;-47
2021/07/04 12:51:57;;;;;;;4.22;3.08;;;14.30;76.70;;;;;;4965857;28;95927;-55
2021/07/04 12:54:32;;;;;;;3.92;2.90;;;14.30;76.60;;;;;;4964455;28;96228;-48
2021/07/04 12:57:07;;;;;;;5.00;3.42;;;14.30;76.60;;;;;;4965382;28;95786;-56
2021/07/04 12:59:40;;;;;;;4.68;3.20;;;14.30;76.60;;;;;;4963479;28;95647;-49
2021/07/04 13:02:14;;;;;;;4.13;3.30;;;14.30;76.50;;;;;;4946198;28;95852;-54
2021/07/04 13:04:48;;;;;;;5.18;3.15;;;14.30;76.50;;;;;;4951013;28;95698;-53
2021/07/04 13:07:21;;;;;;;4.82;3.35;;;14.20;76.40;;;;;;4955745;28;95282;-47
2021/07/04 13:09:52;;;;;;;6.03;3.25;;;14.20;76.40;;;;;;4956818;28;95816;-48
2021/07/04 13:12:26;;;;;;;4.57;3.88;;;14.20;76.40;;;;;;4956702;28;95890;-56
2021/07/04 13:15:02;;;;;;;5.13;2.95;;;14.20;76.40;;;;;;4958242;28;96067;-55
2021/07/04 13:17:43;;;;;;;6.10;3.75;;;14.20;76.40;;;;;;4948470;28;95977;-56
2021/07/04 13:20:25;;;;;;;;;;;14.20;76.30;;;;;;4952508;28;95677;-55
2021/07/04 13:22:57;;;;;;;4.60;3.53;;;14.10;76.20;;;;;;4964624;28;96258;-55
2021/07/04 13:25:33;;;;;;;5.03;3.53;;;14.10;76.20;;;;;;4961676;28;96060;-55
2021/07/04 13:28:09;;;;;;;4.43;3.90;;;14.10;76.20;;;;;;4965158;28;95721;-55
2021/07/04 13:30:49;;;;;;;4.65;3.30;;;14.10;76.20;;;;;;4959310;28;95397;-55
2021/07/04 13:33:35;;;;;;;3.80;3.08;;;14.10;76.20;;;;;;4947478;28;95817;-54